Time;durP1;ratioP1;P1;durP2;ratioP2;P2;SDS_P1;SDS_P2;PMS_P1;PMS_P2;Temp;Humidity;BMP_temperature;BMP_pressure;BME280_temperature;BME280_humidity;BME280_pressure;Samples;Min_cycle;Max_cycle;Signal;HPM_P1;HPM_P2
2023/05/09 00:02:03;;;;;;;9.35;7.70;;;21.20;60.80;;;;;;5071479;28;20199;-57
2023/05/09 00:04:31;;;;;;;8.05;7.25;;;21.20;60.80;;;;;;5073701;28;20275;-56
2023/05/09 00:06:58;;;;;;;8.07;7.28;;;21.20;60.80;;;;;;5075084;28;20739;-57
2023/05/09 00:09:26;;;;;;;7.82;7.03;;;21.20;60.80;;;;;;5074967;28;20212;-56
2023/05/09 00:11:54;;;;;;;7.55;6.80;;;21.20;60.70;;;;;;5075399;28;20675;-57
2023/05/09 00:14:21;;;;;;;8.88;7.60;;;21.20;60.80;;;;;;5074948;28;20230;-57
2023/05/09 00:16:48;;;;;;;10.65;7.65;;;21.20;60.80;;;;;;5076204;28;20207;-57
2023/05/09 00:19:15;;;;;;;8.68;6.95;;;21.20;60.70;;;;;;5076159;28;20536;-57
2023/05/09 00:21:42;;;;;;;8.15;7.28;;;21.20;60.60;;;;;;5076299;28;20193;-57
2023/05/09 00:24:09;;;;;;;9.18;7.22;;;21.20;60.60;;;;;;5076010;28;20198;-56
2023/05/09 00:26:37;;;;;;;8.82;7.72;;;21.10;60.40;;;;;;5074769;28;20195;-56
2023/05/09 00:29:04;;;;;;;8.43;7.50;;;21.10;60.30;;;;;;5075952;28;20187;-56
2023/05/09 00:31:32;;;;;;;8.02;7.15;;;21.10;60.40;;;;;;5074710;28;20220;-56
2023/05/09 00:33:58;;;;;;;10.48;8.10;;;21.10;60.50;;;;;;5074517;28;20703;-56
2023/05/09 00:36:25;;;;;;;8.32;7.50;;;21.10;60.40;;;;;;5075695;28;20281;-56
2023/05/09 00:38:52;;;;;;;8.63;7.30;;;21.10;60.50;;;;;;5074932;28;20286;-58
2023/05/09 00:41:20;;;;;;;8.50;7.70;;;21.10;60.50;;;;;;5074701;28;20198;-58
2023/05/09 00:43:48;;;;;;;10.60;7.85;;;21.10;60.40;;;;;;5074544;28;20679;-58
2023/05/09 00:46:15;;;;;;;9.02;7.80;;;21.00;60.10;;;;;;5074675;28;20201;-58
2023/05/09 00:48:42;;;;;;;8.15;7.38;;;21.10;60.20;;;;;;5075817;28;20226;-58
2023/05/09 00:51:09;;;;;;;10.95;8.38;;;21.00;60.20;;;;;;5076048;28;20183;-58
2023/05/09 00:53:36;;;;;;;9.98;7.78;;;21.00;60.10;;;;;;5074511;28;20222;-58
2023/05/09 00:56:04;;;;;;;8.98;7.63;;;21.00;60.20;;;;;;5074403;28;20202;-58
2023/05/09 00:58:31;;;;;;;9.48;7.95;;;21.00;60.40;;;;;;5074882;28;20598;-58
2023/05/09 01:01:01;;;;;;;9.30;8.40;;;21.00;60.10;;;;;;5075992;28;20274;-58
2023/05/09 01:03:28;;;;;;;9.85;8.80;;;21.00;60.10;;;;;;5074216;28;20201;-58
2023/05/09 01:06:00;;;;;;;9.10;8.18;;;21.00;60.10;;;;;;5074297;28;20671;-58
2023/05/09 01:08:34;;;;;;;8.52;7.65;;;20.90;60.10;;;;;;5074213;28;20230;-58
2023/05/09 01:11:05;;;;;;;8.77;7.53;;;21.00;60.10;;;;;;5075497;28;20193;-58
2023/05/09 01:13:41;;;;;;;9.48;8.48;;;20.90;60.00;;;;;;5074130;28;20183;-57
2023/05/09 01:16:14;;;;;;;9.25;8.10;;;20.90;60.20;;;;;;5075257;28;20178;-58
2023/05/09 01:18:44;;;;;;;9.52;8.60;;;20.90;60.10;;;;;;5074667;28;20285;-58
2023/05/09 01:21:13;;;;;;;10.35;8.30;;;20.90;60.00;;;;;;5076043;28;20183;-58
2023/05/09 01:23:59;;;;;;;9.43;7.93;;;20.90;60.10;;;;;;5075031;28;20209;-58
2023/05/09 01:26:29;;;;;;;10.18;9.05;;;20.90;60.10;;;;;;5075173;28;20167;-56
2023/05/09 01:29:11;;;;;;;9.35;8.35;;;20.80;60.10;;;;;;5073492;28;20238;-56
2023/05/09 01:31:40;;;;;;;9.98;8.98;;;20.90;60.30;;;;;;5074040;28;20206;-55
2023/05/09 01:34:07;;;;;;;10.23;9.18;;;20.90;60.30;;;;;;5073308;28;20214;-56
2023/05/09 01:36:34;;;;;;;9.98;9.00;;;20.80;60.00;;;;;;5073300;28;20310;-56
2023/05/09 01:39:01;;;;;;;10.30;9.07;;;20.80;60.10;;;;;;5073318;28;20256;-56
2023/05/09 01:41:29;;;;;;;10.70;8.82;;;20.80;60.10;;;;;;5074513;28;20190;-56
2023/05/09 01:43:56;;;;;;;9.73;8.60;;;20.80;60.10;;;;;;5074465;28;20211;-56
2023/05/09 01:46:24;;;;;;;9.82;8.82;;;20.80;60.10;;;;;;5073303;28;20195;-58
2023/05/09 01:48:52;;;;;;;10.05;8.52;;;20.70;60.00;;;;;;5073610;28;20201;-58
2023/05/09 01:51:19;;;;;;;8.30;7.38;;;20.80;60.20;;;;;;5075036;28;20713;-58
2023/05/09 01:53:46;;;;;;;9.07;8.00;;;20.80;60.00;;;;;;5074510;28;20207;-58
2023/05/09 01:56:13;;;;;;;9.40;8.45;;;20.70;59.80;;;;;;5073251;28;20201;-58
2023/05/09 01:58:41;;;;;;;8.73;7.93;;;20.70;59.70;;;;;;5073793;28;20190;-58
2023/05/09 02:01:08;;;;;;;8.57;7.68;;;20.70;59.90;;;;;;5074111;28;20558;-56
2023/05/09 02:03:37;;;;;;;9.10;8.18;;;20.70;59.90;;;;;;5072771;28;20218;-56
2023/05/09 02:06:04;;;;;;;7.60;6.82;;;20.70;59.90;;;;;;5072787;28;20227;-56
2023/05/09 02:08:31;;;;;;;8.38;7.55;;;20.70;59.90;;;;;;5072740;28;20206;-56
2023/05/09 02:11:00;;;;;;;10.80;7.90;;;20.70;59.90;;;;;;5074199;28;20189;-56
2023/05/09 02:13:27;;;;;;;8.75;7.85;;;20.70;59.80;;;;;;5072601;28;20226;-56
2023/05/09 02:15:54;;;;;;;8.20;7.40;;;20.60;59.70;;;;;;5072660;28;20581;-55
2023/05/09 02:18:21;;;;;;;8.68;7.78;;;20.60;59.80;;;;;;5072528;28;20214;-56
2023/05/09 02:20:50;;;;;;;8.60;7.80;;;20.60;59.90;;;;;;5073727;28;20662;-55
2023/05/09 02:23:17;;;;;;;9.98;8.10;;;20.60;59.90;;;;;;5072379;28;20194;-55
2023/05/09 02:25:46;;;;;;;8.77;7.97;;;20.60;59.90;;;;;;5072378;28;20693;-56
2023/05/09 02:28:13;;;;;;;8.98;8.15;;;20.60;60.60;;;;;;5072867;28;20193;-56
2023/05/09 02:30:42;;;;;;;9.07;8.13;;;20.60;59.90;;;;;;5073610;28;20204;-56
2023/05/09 02:33:10;;;;;;;8.80;8.00;;;20.60;60.00;;;;;;5073428;28;20272;-55
2023/05/09 02:35:37;;;;;;;10.15;9.18;;;20.60;60.70;;;;;;5073507;28;20198;-56
2023/05/09 02:38:05;;;;;;;9.00;8.10;;;20.50;59.90;;;;;;5072094;28;20309;-56
2023/05/09 02:40:34;;;;;;;8.55;7.60;;;20.50;59.90;;;;;;5072217;28;20198;-56
2023/05/09 02:43:02;;;;;;;8.60;7.80;;;20.50;59.90;;;;;;5072203;28;20202;-56
2023/05/09 02:45:30;;;;;;;9.30;8.40;;;20.50;59.90;;;;;;5072155;28;20215;-56
2023/05/09 02:47:58;;;;;;;8.93;7.82;;;20.50;59.90;;;;;;5082335;22;20317;-75
2023/05/09 02:50:26;;;;;;;8.90;8.00;;;20.50;59.80;;;;;;5052482;28;20253;-75
2023/05/09 02:52:53;;;;;;;8.75;7.95;;;20.50;60.00;;;;;;5052223;28;20211;-75
2023/05/09 02:55:21;;;;;;;8.23;7.35;;;20.50;59.90;;;;;;5052676;28;20203;-74
2023/05/09 02:57:49;;;;;;;9.13;8.32;;;20.50;59.90;;;;;;5052084;28;20227;-75
2023/05/09 03:00:18;;;;;;;8.68;7.88;;;20.50;60.00;;;;;;5052078;28;20199;-75
2023/05/09 03:02:46;;;;;;;8.68;7.88;;;20.50;60.00;;;;;;5052036;28;20204;-75
2023/05/09 03:05:16;;;;;;;7.72;6.97;;;20.50;59.80;;;;;;5053012;28;20601;-74
2023/05/09 03:07:43;;;;;;;10.80;8.07;;;20.50;59.90;;;;;;5052452;28;20187;-74
2023/05/09 03:10:11;;;;;;;8.95;8.02;;;20.50;59.80;;;;;;5052867;28;20198;-74
2023/05/09 03:12:42;;;;;;;7.90;7.20;;;20.50;59.90;;;;;;5051891;28;20202;-74
2023/05/09 03:15:10;;;;;;;7.43;6.72;;;20.50;60.10;;;;;;5052227;28;20249;-74
2023/05/09 03:17:39;;;;;;;7.72;6.88;;;20.50;59.90;;;;;;5051936;28;20215;-74
2023/05/09 03:20:09;;;;;;;7.90;7.00;;;20.50;59.90;;;;;;5053180;28;20286;-75
2023/05/09 03:22:36;;;;;;;7.22;6.53;;;20.50;59.90;;;;;;5053300;28;20675;-74
2023/05/09 03:25:06;;;;;;;7.97;7.18;;;20.60;59.80;;;;;;5052066;28;20211;-74
2023/05/09 03:27:33;;;;;;;7.53;6.65;;;20.60;59.50;;;;;;5052118;28;20219;-74
2023/05/09 03:30:03;;;;;;;7.30;6.60;;;20.70;59.40;;;;;;5052080;28;20596;-75
2023/05/09 03:32:30;;;;;;;6.78;6.07;;;20.70;59.40;;;;;;5052040;28;20206;-74
2023/05/09 03:34:57;;;;;;;7.38;6.68;;;20.70;59.30;;;;;;5053401;28;20665;-74
2023/05/09 03:37:26;;;;;;;7.15;6.43;;;20.80;59.20;;;;;;5051960;28;20782;-76
2023/05/09 03:39:53;;;;;;;6.30;5.70;;;20.80;59.80;;;;;;5055406;28;20214;-75
2023/05/09 03:42:21;;;;;;;7.53;6.20;;;20.80;59.10;;;;;;5056512;28;20692;-75
2023/05/09 03:44:51;;;;;;;7.63;6.10;;;20.80;59.10;;;;;;5064527;28;20258;-74
2023/05/09 03:47:21;;;;;;;6.40;5.78;;;20.90;59.00;;;;;;5062438;28;20187;-75
2023/05/09 03:49:49;;;;;;;6.68;5.97;;;20.90;58.90;;;;;;5059053;28;20251;-74
2023/05/09 03:52:20;;;;;;;9.48;6.43;;;20.90;58.80;;;;;;5057696;28;20199;-74
2023/05/09 03:54:47;;;;;;;6.80;6.13;;;20.90;58.80;;;;;;5056208;28;20206;-74
2023/05/09 03:57:15;;;;;;;6.93;6.32;;;21.00;58.80;;;;;;5056152;28;20590;-74
2023/05/09 03:59:42;;;;;;;7.78;6.50;;;21.00;58.60;;;;;;5056075;28;20211;-75
2023/05/09 04:02:11;;;;;;;7.00;6.40;;;21.00;58.60;;;;;;5056290;28;20623;-75
2023/05/09 04:04:39;;;;;;;7.20;6.50;;;21.00;58.40;;;;;;5055713;28;20202;-74
2023/05/09 04:07:06;;;;;;;7.32;6.47;;;21.00;58.40;;;;;;5055731;28;20286;-74
2023/05/09 04:09:33;;;;;;;7.32;6.63;;;21.00;58.50;;;;;;5055774;28;20220;-74
2023/05/09 04:12:01;;;;;;;7.82;6.18;;;21.00;58.40;;;;;;5055218;28;20218;-74
2023/05/09 04:14:27;;;;;;;7.75;7.05;;;21.10;58.50;;;;;;5055660;28;20203;-75
2023/05/09 04:16:55;;;;;;;7.53;6.72;;;21.00;58.40;;;;;;5055434;28;20198;-73
2023/05/09 04:19:21;;;;;;;7.32;6.10;;;21.00;58.20;;;;;;5055129;28;20230;-75
2023/05/09 04:21:50;;;;;;;7.03;6.38;;;21.00;58.20;;;;;;5055212;28;20669;-75
2023/05/09 04:24:18;;;;;;;7.85;7.10;;;21.00;58.20;;;;;;5055279;28;20192;-75
2023/05/09 04:26:48;;;;;;;7.28;6.30;;;21.10;58.20;;;;;;5055356;28;20219;-75
2023/05/09 04:29:19;;;;;;;7.78;7.07;;;21.10;58.10;;;;;;5055226;28;20219;-75
2023/05/09 04:31:51;;;;;;;8.23;6.85;;;21.10;58.10;;;;;;5055149;28;20194;-74
2023/05/09 04:34:18;;;;;;;7.85;6.80;;;21.10;58.10;;;;;;5054921;28;20203;-75
2023/05/09 04:36:45;;;;;;;7.97;7.28;;;21.10;58.00;;;;;;5054900;28;20199;-75
2023/05/09 04:39:14;;;;;;;7.53;6.78;;;21.10;58.60;;;;;;5055139;28;20223;-74
2023/05/09 04:41:50;;;;;;;7.45;6.70;;;21.10;58.00;;;;;;5054648;28;20203;-73
2023/05/09 04:44:18;;;;;;;7.20;6.57;;;21.10;58.10;;;;;;5054611;28;20203;-73
2023/05/09 04:46:45;;;;;;;6.53;5.93;;;21.10;58.00;;;;;;5054458;28;20579;-74
2023/05/09 04:49:12;;;;;;;7.30;6.53;;;21.10;57.90;;;;;;5054310;28;20233;-74
2023/05/09 04:51:39;;;;;;;8.18;6.85;;;21.10;57.90;;;;;;5053625;28;20207;-74
2023/05/09 04:54:06;;;;;;;6.72;6.07;;;21.10;57.90;;;;;;5054534;28;20199;-74
2023/05/09 04:56:38;;;;;;;8.07;7.35;;;21.10;57.80;;;;;;5054393;28;20557;-74
2023/05/09 04:59:05;;;;;;;8.40;7.60;;;21.20;57.80;;;;;;5055338;28;20599;-74
2023/05/09 05:01:32;;;;;;;7.38;6.68;;;21.20;57.80;;;;;;5054455;28;20195;-74
2023/05/09 05:04:00;;;;;;;7.90;7.25;;;21.10;57.70;;;;;;5054383;28;20219;-73
2023/05/09 05:06:31;;;;;;;8.27;7.47;;;21.20;57.70;;;;;;5054416;28;20188;-74
2023/05/09 05:08:59;;;;;;;7.15;6.45;;;21.20;57.70;;;;;;5054112;28;20282;-74
2023/05/09 05:11:26;;;;;;;7.50;6.80;;;21.20;57.60;;;;;;5053909;28;20191;-75
2023/05/09 05:13:55;;;;;;;7.40;6.65;;;21.20;57.60;;;;;;5054096;28;20195;-75
2023/05/09 05:16:22;;;;;;;7.28;6.57;;;21.30;57.60;;;;;;5055188;28;20246;-75
2023/05/09 05:18:49;;;;;;;7.07;6.35;;;21.30;57.50;;;;;;5055611;28;20269;-75
2023/05/09 05:21:18;;;;;;;6.85;6.25;;;21.30;57.50;;;;;;5054128;28;20253;-73
2023/05/09 05:23:45;;;;;;;6.95;6.35;;;21.30;57.30;;;;;;5053784;28;20198;-74
2023/05/09 05:26:14;;;;;;;6.60;5.93;;;21.40;57.30;;;;;;5054131;28;20210;-74
2023/05/09 05:28:42;;;;;;;6.50;5.90;;;21.50;57.30;;;;;;5053690;28;20269;-74
2023/05/09 05:31:10;;;;;;;7.07;6.47;;;21.50;57.20;;;;;;5053526;28;20188;-75
2023/05/09 05:33:37;;;;;;;7.57;5.97;;;21.60;57.00;;;;;;5054070;28;20229;-73
2023/05/09 05:36:05;;;;;;;7.30;6.63;;;21.60;56.80;;;;;;5054183;28;20560;-73
2023/05/09 05:38:32;;;;;;;6.50;5.90;;;21.70;56.70;;;;;;5053500;28;20227;-74
2023/05/09 05:40:59;;;;;;;7.50;6.80;;;21.70;56.60;;;;;;5054875;28;20184;-74
2023/05/09 05:43:28;;;;;;;7.00;6.40;;;21.70;56.50;;;;;;5053659;28;20199;-74
2023/05/09 05:45:55;;;;;;;7.80;7.00;;;21.70;56.30;;;;;;5053509;28;20223;-73
2023/05/09 05:48:25;;;;;;;7.15;6.45;;;21.80;56.30;;;;;;5053168;28;20607;-74
2023/05/09 05:50:54;;;;;;;7.75;7.05;;;21.80;56.00;;;;;;5054162;28;20191;-74
2023/05/09 05:53:24;;;;;;;6.72;6.13;;;21.80;56.00;;;;;;5053384;28;20226;-75
2023/05/09 05:55:52;;;;;;;7.07;6.38;;;21.90;55.80;;;;;;5053319;28;20195;-75
2023/05/09 05:58:19;;;;;;;7.45;6.75;;;21.90;55.80;;;;;;5053125;28;20245;-76
2023/05/09 06:00:46;;;;;;;7.10;6.50;;;21.90;55.70;;;;;;5053859;28;20237;-75
2023/05/09 06:03:14;;;;;;;8.57;7.70;;;22.00;55.70;;;;;;5053462;28;20199;-74
2023/05/09 06:05:51;;;;;;;7.03;6.40;;;22.00;55.80;;;;;;5053884;28;20264;-75
2023/05/09 06:08:18;;;;;;;6.93;6.32;;;22.00;55.60;;;;;;5053474;28;20257;-74
2023/05/09 06:10:45;;;;;;;6.22;5.72;;;22.00;55.70;;;;;;5053410;28;20199;-73
2023/05/09 06:13:12;;;;;;;6.80;6.20;;;22.00;55.70;;;;;;5053337;28;20199;-75
2023/05/09 06:15:43;;;;;;;7.38;6.57;;;22.10;55.70;;;;;;5053510;28;20195;-75
2023/05/09 06:18:11;;;;;;;6.78;6.07;;;22.10;55.60;;;;;;5052845;28;20233;-74
2023/05/09 06:20:37;;;;;;;7.18;6.53;;;22.20;55.60;;;;;;5053123;28;20657;-73
2023/05/09 06:23:06;;;;;;;5.97;5.45;;;22.30;55.50;;;;;;5054408;28;20207;-74
2023/05/09 06:25:34;;;;;;;7.00;6.25;;;22.40;55.30;;;;;;5054239;28;20199;-74
2023/05/09 06:28:01;;;;;;;8.07;7.38;;;22.50;55.00;;;;;;5053029;28;20253;-74
2023/05/09 06:30:28;;;;;;;8.23;7.40;;;22.60;54.80;;;;;;5052752;28;20206;-74
2023/05/09 06:32:56;;;;;;;6.85;6.25;;;22.80;54.50;;;;;;5052750;28;20203;-74
2023/05/09 06:35:24;;;;;;;6.60;6.00;;;23.00;54.00;;;;;;5052576;28;20199;-74
2023/05/09 06:37:51;;;;;;;8.07;7.28;;;23.20;53.70;;;;;;5053778;28;20237;-74
2023/05/09 06:40:19;;;;;;;7.93;7.13;;;23.40;53.30;;;;;;5052686;28;20203;-74
2023/05/09 06:42:46;;;;;;;7.38;6.68;;;23.60;52.90;;;;;;5052612;28;20573;-74
2023/05/09 06:45:14;;;;;;;8.70;7.90;;;23.70;52.60;;;;;;5053437;28;20281;-74
2023/05/09 06:47:42;;;;;;;6.68;5.95;;;23.80;52.40;;;;;;5053706;28;20738;-73
2023/05/09 06:50:09;;;;;;;6.50;5.82;;;23.80;52.10;;;;;;5053908;28;20207;-75
2023/05/09 06:52:36;;;;;;;7.00;6.30;;;24.00;52.30;;;;;;5054846;28;20677;-73
2023/05/09 06:55:03;;;;;;;6.47;5.88;;;24.00;51.80;;;;;;5054302;28;20203;-74
2023/05/09 06:57:32;;;;;;;6.97;6.28;;;24.00;52.00;;;;;;5052559;28;20688;-72
2023/05/09 06:59:59;;;;;;;6.32;5.80;;;24.00;52.20;;;;;;5052163;28;20223;-72
2023/05/09 07:02:25;;;;;;;7.03;6.38;;;24.00;52.20;;;;;;5053810;28;20187;-72
2023/05/09 07:04:53;;;;;;;6.30;5.70;;;24.00;52.00;;;;;;5053783;28;20227;-72
2023/05/09 07:07:21;;;;;;;5.35;4.85;;;24.00;52.00;;;;;;5053717;28;20197;-72
2023/05/09 07:09:48;;;;;;;5.80;5.20;;;24.00;51.80;;;;;;5052274;28;20281;-72
2023/05/09 07:12:15;;;;;;;4.88;4.47;;;24.10;51.90;;;;;;5052795;28;20199;-72
2023/05/09 07:14:43;;;;;;;6.10;4.25;;;24.10;51.60;;;;;;5054633;28;20194;-74
2023/05/09 07:17:10;;;;;;;4.70;4.30;;;24.20;51.40;;;;;;5053638;28;20187;-73
2023/05/09 07:19:38;;;;;;;4.68;4.28;;;24.30;51.10;;;;;;5054952;28;20309;-73
2023/05/09 07:22:05;;;;;;;4.50;4.18;;;24.30;50.80;;;;;;5052076;28;20302;-73
2023/05/09 07:24:32;;;;;;;4.63;4.22;;;24.30;50.90;;;;;;5052095;28;20688;-73
2023/05/09 07:27:02;;;;;;;4.13;3.83;;;24.30;51.10;;;;;;5052153;28;20282;-73
2023/05/09 07:29:29;;;;;;;4.63;4.22;;;24.40;51.10;;;;;;5052068;28;20575;-73
2023/05/09 07:31:58;;;;;;;4.55;4.15;;;24.40;51.20;;;;;;5053321;28;20195;-71
2023/05/09 07:34:24;;;;;;;5.03;4.53;;;24.50;50.50;;;;;;5053364;28;20191;-76
2023/05/09 07:36:52;;;;;;;4.60;4.18;;;24.60;50.50;;;;;;5053089;28;20195;-78
2023/05/09 07:39:20;;;;;;;5.68;4.15;;;24.70;50.40;;;;;;5052401;28;20700;-76
2023/05/09 07:41:47;;;;;;;7.78;5.50;;;24.80;50.00;;;;;;5052753;28;20593;-74
2023/05/09 07:44:14;;;;;;;6.35;5.10;;;24.80;50.20;;;;;;5053137;28;20200;-75
2023/05/09 07:46:41;;;;;;;5.07;4.68;;;24.80;49.90;;;;;;5052639;28;20624;-77
2023/05/09 07:49:09;;;;;;;4.90;4.40;;;24.90;50.00;;;;;;5052984;28;20211;-75
2023/05/09 07:51:36;;;;;;;5.22;4.38;;;25.00;50.10;;;;;;5053096;28;20301;-77
2023/05/09 07:54:03;;;;;;;4.88;4.43;;;25.00;49.80;;;;;;5053727;28;20219;-77
2023/05/09 07:56:31;;;;;;;4.38;3.97;;;25.10;49.80;;;;;;5051952;28;20215;-76
2023/05/09 07:58:58;;;;;;;5.45;4.20;;;25.30;49.90;;;;;;5053174;28;20317;-73
2023/05/09 08:01:25;;;;;;;4.80;4.40;;;25.30;49.40;;;;;;5053760;28;20687;-78
2023/05/09 08:03:52;;;;;;;4.40;4.10;;;25.40;49.20;;;;;;5054925;28;20306;-76
2023/05/09 08:06:20;;;;;;;4.13;3.80;;;25.50;49.30;;;;;;5051973;28;20298;-72
2023/05/09 08:08:47;;;;;;;4.63;4.22;;;25.50;49.30;;;;;;5053138;28;20218;-74
2023/05/09 08:11:14;;;;;;;9.45;4.20;;;25.60;49.00;;;;;;5051660;28;20195;-70
2023/05/09 08:13:42;;;;;;;5.00;4.30;;;25.60;49.00;;;;;;5053460;28;20241;-73
2023/05/09 08:16:08;;;;;;;4.38;4.07;;;25.70;48.80;;;;;;5053340;28;20206;-72
2023/05/09 08:18:35;;;;;;;4.75;4.07;;;25.70;49.00;;;;;;5054745;28;20241;-72
2023/05/09 08:21:03;;;;;;;4.50;4.10;;;25.80;48.70;;;;;;5056839;28;20282;-74
2023/05/09 08:23:32;;;;;;;4.20;3.90;;;25.80;48.70;;;;;;5059389;28;20199;-74
2023/05/09 08:25:58;;;;;;;4.10;3.70;;;25.90;48.80;;;;;;5054475;28;20191;-73
2023/05/09 08:28:27;;;;;;;4.18;3.88;;;25.80;48.80;;;;;;5055126;28;20573;-74
2023/05/09 08:30:54;;;;;;;4.40;4.07;;;25.80;48.70;;;;;;5054832;28;20199;-73
2023/05/09 08:33:22;;;;;;;4.93;3.70;;;25.70;48.90;;;;;;5055805;28;20214;-78
2023/05/09 08:35:50;;;;;;;4.25;3.85;;;25.70;48.90;;;;;;5057437;28;21016;-73
2023/05/09 08:38:17;;;;;;;4.10;3.80;;;25.70;48.80;;;;;;5057835;28;20215;-74
2023/05/09 08:40:46;;;;;;;8.15;7.45;;;25.60;48.70;;;;;;5055187;28;20194;-73
2023/05/09 08:43:13;;;;;;;9.85;9.05;;;25.70;48.00;;;;;;5054812;28;20252;-73
2023/05/09 08:45:43;;;;;;;10.40;9.50;;;25.70;47.50;;;;;;5055765;28;20187;-71
2023/05/09 08:48:10;;;;;;;8.88;8.07;;;25.70;47.40;;;;;;5054575;28;20229;-72
2023/05/09 08:50:37;;;;;;;10.95;9.95;;;25.70;47.60;;;;;;5056051;28;20660;-76
2023/05/09 08:53:04;;;;;;;11.45;10.25;;;25.60;47.50;;;;;;5056108;28;20645;-76
2023/05/09 08:55:31;;;;;;;11.52;10.32;;;25.60;46.40;;;;;;5054741;28;20695;-76
2023/05/09 08:57:59;;;;;;;11.60;10.50;;;25.50;47.00;;;;;;5055087;28;20220;-76
2023/05/09 09:00:27;;;;;;;10.20;9.13;;;25.50;47.30;;;;;;5054815;28;20260;-72
2023/05/09 09:02:54;;;;;;;9.77;8.88;;;25.50;47.30;;;;;;5054752;28;20202;-75
2023/05/09 09:05:21;;;;;;;9.90;7.28;;;25.50;47.40;;;;;;5054478;28;20207;-75
2023/05/09 09:07:48;;;;;;;11.85;9.88;;;25.50;47.40;;;;;;5054105;28;20574;-73
2023/05/09 09:10:15;;;;;;;8.90;7.45;;;25.60;47.10;;;;;;5054292;28;20198;-74
2023/05/09 09:12:42;;;;;;;11.23;10.13;;;25.60;46.80;;;;;;5054020;28;20218;-74
2023/05/09 09:15:13;;;;;;;9.80;8.52;;;25.60;47.00;;;;;;5054085;28;20221;-73
2023/05/09 09:17:41;;;;;;;10.18;9.20;;;25.60;46.80;;;;;;5054079;28;20191;-74
2023/05/09 09:20:10;;;;;;;8.63;7.82;;;25.50;47.10;;;;;;5054109;28;20218;-74
2023/05/09 09:22:37;;;;;;;8.60;7.80;;;25.40;46.90;;;;;;5054027;28;20205;-76
2023/05/09 09:25:04;;;;;;;8.85;8.10;;;25.40;46.80;;;;;;5055858;28;20222;-74
2023/05/09 09:27:32;;;;;;;9.52;8.63;;;25.40;47.30;;;;;;5055417;28;20191;-76
2023/05/09 09:30:06;;;;;;;10.52;9.52;;;25.30;47.50;;;;;;5054223;28;20219;-76
2023/05/09 09:32:35;;;;;;;9.23;7.18;;;25.20;47.70;;;;;;5054070;28;20197;-76
2023/05/09 09:35:06;;;;;;;8.82;7.93;;;25.10;47.60;;;;;;5055084;28;20187;-75
2023/05/09 09:37:34;;;;;;;10.75;9.65;;;25.00;48.10;;;;;;5053253;28;20195;-76
2023/05/09 09:40:01;;;;;;;9.55;8.65;;;24.90;48.50;;;;;;5054947;28;20269;-74
2023/05/09 09:42:29;;;;;;;9.68;8.77;;;24.70;48.90;;;;;;5053582;28;20203;-75
2023/05/09 09:44:57;;;;;;;10.80;9.80;;;24.70;49.90;;;;;;5054735;28;20201;-74
2023/05/09 09:47:31;;;;;;;11.63;10.43;;;24.50;49.40;;;;;;5054941;28;20195;-74
2023/05/09 09:49:59;;;;;;;11.43;10.32;;;24.50;49.90;;;;;;5054156;28;20254;-74
2023/05/09 09:52:26;;;;;;;11.45;10.45;;;24.40;49.60;;;;;;5053842;28;20218;-74
2023/05/09 09:54:56;;;;;;;11.43;10.32;;;24.30;50.30;;;;;;5053577;28;20194;-74
2023/05/09 09:57:34;;;;;;;12.68;11.18;;;24.30;50.10;;;;;;5054679;28;20610;-75
2023/05/09 10:00:01;;;;;;;11.48;10.27;;;24.20;49.40;;;;;;5053259;28;20313;-74
2023/05/09 10:02:28;;;;;;;12.70;11.18;;;24.20;49.80;;;;;;5054293;28;20198;-74
2023/05/09 10:04:55;;;;;;;11.63;10.48;;;24.10;50.60;;;;;;5053134;28;20289;-74
2023/05/09 10:07:24;;;;;;;11.07;10.07;;;24.10;51.20;;;;;;5053089;28;20195;-74
2023/05/09 10:09:51;;;;;;;10.85;9.75;;;24.00;49.80;;;;;;5054361;28;20215;-73
2023/05/09 10:12:19;;;;;;;10.10;9.15;;;24.10;50.10;;;;;;5053095;28;20191;-75
2023/05/09 10:14:46;;;;;;;8.68;7.97;;;24.20;50.10;;;;;;5053184;28;20679;-74
2023/05/09 10:17:14;;;;;;;11.35;10.20;;;24.20;50.00;;;;;;5054101;28;20213;-78
2023/05/09 10:19:44;;;;;;;11.38;10.05;;;24.30;50.40;;;;;;5059319;28;20222;-76
2023/05/09 10:22:12;;;;;;;8.93;8.02;;;24.20;50.90;;;;;;5053621;28;20263;-75
2023/05/09 10:24:48;;;;;;;7.95;7.13;;;24.20;51.00;;;;;;5054769;28;20214;-76
2023/05/09 10:27:15;;;;;;;10.70;9.70;;;24.20;50.90;;;;;;5077709;22;20749;-78
2023/05/09 10:29:45;;;;;;;11.02;10.02;;;24.10;51.10;;;;;;5055714;28;20183;-78
2023/05/09 10:32:16;;;;;;;10.35;9.35;;;24.10;49.70;;;;;;5055830;28;20270;-78
2023/05/09 10:34:46;;;;;;;10.70;9.70;;;24.10;50.40;;;;;;5054741;28;20188;-78
2023/05/09 10:37:13;;;;;;;8.15;7.35;;;24.20;50.30;;;;;;5055077;28;20293;-78
2023/05/09 10:39:41;;;;;;;10.15;8.48;;;24.20;50.10;;;;;;5055001;28;20216;-79
2023/05/09 10:42:09;;;;;;;10.65;9.65;;;24.30;49.90;;;;;;5056016;28;20206;-80
2023/05/09 10:44:36;;;;;;;8.82;6.82;;;24.20;49.60;;;;;;5055923;28;20671;-81
2023/05/09 10:47:03;;;;;;;9.23;8.43;;;24.30;49.50;;;;;;5055758;28;20195;-79
2023/05/09 10:49:30;;;;;;;8.77;7.88;;;24.30;50.90;;;;;;5054665;28;20187;-80
2023/05/09 10:51:58;;;;;;;10.07;9.10;;;24.40;50.10;;;;;;5055726;28;20219;-80
2023/05/09 10:54:28;;;;;;;9.15;8.18;;;24.40;50.80;;;;;;5040589;28;20565;-81
2023/05/09 10:56:59;;;;;;;12.80;10.35;;;24.40;51.60;;;;;;5055234;28;20201;-80
2023/05/09 10:59:36;;;;;;;12.02;10.60;;;24.40;50.50;;;;;;5055221;28;20374;-80
2023/05/09 11:02:04;;;;;;;12.30;10.15;;;24.30;50.60;;;;;;5055953;28;20293;-80
2023/05/09 11:04:31;;;;;;;10.95;9.90;;;24.30;50.60;;;;;;5055277;28;20666;-80
2023/05/09 11:06:58;;;;;;;8.73;7.90;;;24.30;50.80;;;;;;5057238;28;20550;-82
2023/05/09 11:09:32;;;;;;;10.57;9.20;;;24.30;50.80;;;;;;5054981;28;20665;-80
2023/05/09 11:12:07;;;;;;;8.98;8.02;;;24.30;51.00;;;;;;5054413;28;20215;-81
2023/05/09 11:14:39;;;;;;;8.18;7.38;;;24.40;51.20;;;;;;5054633;28;20195;-81
2023/05/09 11:17:06;;;;;;;7.45;6.75;;;24.40;51.10;;;;;;5055327;28;20183;-79
2023/05/09 11:19:35;;;;;;;7.28;6.28;;;24.40;50.90;;;;;;5056811;28;20226;-80
2023/05/09 11:22:02;;;;;;;7.43;6.72;;;24.40;51.10;;;;;;5056465;28;20283;-78
2023/05/09 11:24:31;;;;;;;7.18;6.47;;;24.50;50.50;;;;;;5055106;28;20195;-79
2023/05/09 11:26:58;;;;;;;6.43;5.85;;;24.60;50.90;;;;;;5055320;28;20217;-79
2023/05/09 11:29:28;;;;;;;6.00;5.50;;;24.60;50.80;;;;;;5056622;28;20199;-79
2023/05/09 11:32:07;;;;;;;6.32;5.55;;;24.60;50.80;;;;;;5055341;28;20221;-80
2023/05/09 11:34:34;;;;;;;5.78;5.28;;;24.70;51.00;;;;;;5055737;28;20225;-80
2023/05/09 11:37:09;;;;;;;6.00;5.50;;;24.70;50.80;;;;;;5058019;28;20203;-81
2023/05/09 11:39:37;;;;;;;5.95;5.35;;;24.70;51.00;;;;;;5055995;28;20197;-81
2023/05/09 11:42:04;;;;;;;6.80;5.38;;;24.70;50.70;;;;;;5053219;28;20233;-81
2023/05/09 11:44:33;;;;;;;5.45;5.05;;;24.80;50.70;;;;;;5037327;28;20230;-81
2023/05/09 11:47:00;;;;;;;5.25;4.75;;;24.80;50.60;;;;;;5054938;28;20210;-82
2023/05/09 11:49:29;;;;;;;5.38;4.97;;;24.80;50.90;;;;;;5054817;28;20204;-80
2023/05/09 11:51:59;;;;;;;5.97;5.47;;;24.90;50.90;;;;;;5054388;28;20693;-80
2023/05/09 11:54:26;;;;;;;5.68;5.25;;;24.90;50.70;;;;;;5055515;28;20191;-81
2023/05/09 11:56:53;;;;;;;5.88;5.38;;;24.90;50.90;;;;;;5056959;28;20196;-81
2023/05/09 11:59:25;;;;;;;5.50;5.00;;;24.90;50.70;;;;;;5040696;28;20195;-82
2023/05/09 12:01:55;;;;;;;5.75;5.25;;;24.80;50.90;;;;;;5060683;28;20238;-82
2023/05/09 12:04:21;;;;;;;5.40;4.90;;;24.80;50.90;;;;;;5058148;28;20191;-80
2023/05/09 12:06:49;;;;;;;5.43;5.03;;;24.80;50.90;;;;;;5057424;28;20206;-80
2023/05/09 12:09:16;;;;;;;5.22;4.80;;;24.80;50.90;;;;;;5057352;28;20233;-80
2023/05/09 12:11:48;;;;;;;5.53;5.03;;;24.80;50.90;;;;;;5040710;28;20222;-80
2023/05/09 12:14:26;;;;;;;4.65;4.28;;;24.80;50.90;;;;;;5061798;28;20187;-80
2023/05/09 12:16:55;;;;;;;5.40;5.00;;;24.80;50.90;;;;;;5063593;28;20199;-80
2023/05/09 12:19:23;;;;;;;5.07;4.65;;;24.80;51.00;;;;;;5073279;28;20209;-80
2023/05/09 12:21:54;;;;;;;5.63;5.07;;;24.70;51.00;;;;;;5073266;28;20257;-81
2023/05/09 12:24:21;;;;;;;5.10;4.70;;;24.70;51.00;;;;;;5070483;28;20195;-81
2023/05/09 12:26:48;;;;;;;5.47;4.97;;;24.70;51.00;;;;;;5057900;28;20222;-80
2023/05/09 12:29:15;;;;;;;4.97;4.50;;;24.70;51.00;;;;;;5058035;28;20199;-80
2023/05/09 12:31:42;;;;;;;5.53;5.03;;;24.70;51.00;;;;;;5060305;28;20218;-80
2023/05/09 12:34:11;;;;;;;5.13;4.68;;;24.70;51.10;;;;;;5060202;28;20570;-81
2023/05/09 12:36:38;;;;;;;5.10;4.63;;;24.70;50.90;;;;;;5059818;28;20199;-81
2023/05/09 12:39:09;;;;;;;5.20;4.70;;;24.70;50.90;;;;;;5058453;28;20207;-81
2023/05/09 12:41:42;;;;;;;5.20;4.70;;;24.80;51.00;;;;;;5057257;28;20277;-81
2023/05/09 12:44:09;;;;;;;4.78;4.38;;;24.70;51.00;;;;;;5056576;28;20198;-80
2023/05/09 12:46:38;;;;;;;5.05;4.65;;;24.70;50.90;;;;;;5057331;28;20191;-80
2023/05/09 12:49:05;;;;;;;5.00;4.50;;;24.70;50.90;;;;;;5057906;28;20198;-81
2023/05/09 12:51:33;;;;;;;5.38;4.97;;;24.80;51.00;;;;;;5059528;28;20237;-81